sensor_id;sensor_type;location;lat;lon;timestamp;pressure;altitude;pressure_sealevel;temperature;humidity
77869;BME280;67231;59.144;37.934;2023-04-02T00:08:59;99677.47;;;2.30;72.10
77869;BME280;67231;59.144;37.934;2023-04-02T00:11:32;99687.94;;;2.30;71.31
77869;BME280;67231;59.144;37.934;2023-04-02T00:14:03;99674.09;;;2.28;71.59
77869;BME280;67231;59.144;37.934;2023-04-02T00:16:32;99688.16;;;2.27;71.56
77869;BME280;67231;59.144;37.934;2023-04-02T00:19:01;99679.53;;;2.25;71.48
77869;BME280;67231;59.144;37.934;2023-04-02T00:21:33;99684.78;;;2.25;71.54
77869;BME280;67231;59.144;37.934;2023-04-02T00:24:12;99690.75;;;2.27;71.71
77869;BME280;67231;59.144;37.934;2023-04-02T00:26:43;99686.66;;;2.23;71.97
77869;BME280;67231;59.144;37.934;2023-04-02T00:29:12;99691.09;;;2.22;71.53
77869;BME280;67231;59.144;37.934;2023-04-02T00:31:42;99683.34;;;2.21;71.58
77869;BME280;67231;59.144;37.934;2023-04-02T00:34:37;99689.50;;;2.19;71.88
77869;BME280;67231;59.144;37.934;2023-04-02T00:37:03;99687.63;;;2.22;71.38
77869;BME280;67231;59.144;37.934;2023-04-02T00:39:37;99688.78;;;2.17;71.51
77869;BME280;67231;59.144;37.934;2023-04-02T00:42:10;99699.16;;;2.19;71.76
77869;BME280;67231;59.144;37.934;2023-04-02T00:44:39;99705.97;;;2.22;71.87
77869;BME280;67231;59.144;37.934;2023-04-02T00:47:33;99712.84;;;2.23;71.82
77869;BME280;67231;59.144;37.934;2023-04-02T00:50:31;99718.28;;;2.19;71.52
77869;BME280;67231;59.144;37.934;2023-04-02T00:53:04;99710.22;;;2.23;71.48
77869;BME280;67231;59.144;37.934;2023-04-02T00:55:37;99718.94;;;2.23;71.42
77869;BME280;67231;59.144;37.934;2023-04-02T00:58:12;99716.19;;;2.25;71.23
77869;BME280;67231;59.144;37.934;2023-04-02T01:00:48;99713.72;;;2.23;71.02
77869;BME280;67231;59.144;37.934;2023-04-02T01:05:46;99724.78;;;2.27;71.11
77869;BME280;67231;59.144;37.934;2023-04-02T01:08:25;99718.69;;;2.26;71.19
77869;BME280;67231;59.144;37.934;2023-04-02T01:11:00;99723.94;;;2.26;71.38
77869;BME280;67231;59.144;37.934;2023-04-02T01:13:34;99729.41;;;2.23;71.32
77869;BME280;67231;59.144;37.934;2023-04-02T01:24:43;99731.28;;;2.08;71.36
77869;BME280;67231;59.144;37.934;2023-04-02T01:27:27;99725.00;;;2.11;71.38
77869;BME280;67231;59.144;37.934;2023-04-02T01:29:57;99729.19;;;2.13;71.63
77869;BME280;67231;59.144;37.934;2023-04-02T01:32:28;99725.75;;;2.13;71.37
77869;BME280;67231;59.144;37.934;2023-04-02T01:34:56;99725.00;;;2.11;71.24
77869;BME280;67231;59.144;37.934;2023-04-02T01:37:32;99728.47;;;2.11;71.37
77869;BME280;67231;59.144;37.934;2023-04-02T01:40:32;99729.84;;;2.17;71.32
77869;BME280;67231;59.144;37.934;2023-04-02T01:43:17;99738.41;;;2.19;71.49
77869;BME280;67231;59.144;37.934;2023-04-02T01:45:49;99730.66;;;2.17;71.37
77869;BME280;67231;59.144;37.934;2023-04-02T01:48:22;99732.34;;;2.18;71.33
77869;BME280;67231;59.144;37.934;2023-04-02T01:50:52;99736.94;;;2.15;71.68
77869;BME280;67231;59.144;37.934;2023-04-02T01:53:21;99737.69;;;2.17;71.42
77869;BME280;67231;59.144;37.934;2023-04-02T01:55:52;99735.88;;;2.17;71.39
77869;BME280;67231;59.144;37.934;2023-04-02T01:58:21;99749.19;;;2.14;71.52
77869;BME280;67231;59.144;37.934;2023-04-02T02:01:06;99751.41;;;2.08;71.56
77869;BME280;67231;59.144;37.934;2023-04-02T02:03:38;99737.28;;;2.10;71.15
77869;BME280;67231;59.144;37.934;2023-04-02T02:06:06;99735.47;;;2.11;71.27
77869;BME280;67231;59.144;37.934;2023-04-02T02:11:14;99746.78;;;2.11;71.60
77869;BME280;67231;59.144;37.934;2023-04-02T02:13:54;99738.09;;;2.11;71.37
77869;BME280;67231;59.144;37.934;2023-04-02T02:16:21;99740.72;;;2.11;71.37
77869;BME280;67231;59.144;37.934;2023-04-02T02:18:50;99742.50;;;2.10;71.39
77869;BME280;67231;59.144;37.934;2023-04-02T02:21:42;99734.66;;;2.10;71.64
77869;BME280;67231;59.144;37.934;2023-04-02T02:24:21;99736.50;;;2.08;71.23
77869;BME280;67231;59.144;37.934;2023-04-02T02:26:57;99748.16;;;2.04;71.23
77869;BME280;67231;59.144;37.934;2023-04-02T02:29:25;99766.69;;;2.01;71.19
77869;BME280;67231;59.144;37.934;2023-04-02T02:31:54;99772.13;;;1.98;71.48
77869;BME280;67231;59.144;37.934;2023-04-02T02:34:30;99770.31;;;1.98;71.69
77869;BME280;67231;59.144;37.934;2023-04-02T02:37:11;99774.22;;;1.93;71.51
77869;BME280;67231;59.144;37.934;2023-04-02T02:39:43;99772.22;;;1.96;71.52
77869;BME280;67231;59.144;37.934;2023-04-02T02:42:15;99769.41;;;1.99;71.55
77869;BME280;67231;59.144;37.934;2023-04-02T02:44:46;99767.50;;;2.02;71.46
77869;BME280;67231;59.144;37.934;2023-04-02T02:47:33;99779.75;;;2.01;71.59
77869;BME280;67231;59.144;37.934;2023-04-02T02:50:06;99775.56;;;1.98;71.43
77869;BME280;67231;59.144;37.934;2023-04-02T02:52:36;99779.88;;;1.99;71.49
77869;BME280;67231;59.144;37.934;2023-04-02T02:55:23;99790.13;;;2.03;72.00
77869;BME280;67231;59.144;37.934;2023-04-02T02:58:18;99787.41;;;2.04;71.89
77869;BME280;67231;59.144;37.934;2023-04-02T03:01:11;99791.47;;;2.08;71.63
77869;BME280;67231;59.144;37.934;2023-04-02T03:03:40;99784.25;;;2.12;71.42
77869;BME280;67231;59.144;37.934;2023-04-02T03:06:09;99781.53;;;2.13;71.72
77869;BME280;67231;59.144;37.934;2023-04-02T03:08:45;99783.09;;;2.16;71.68
77869;BME280;67231;59.144;37.934;2023-04-02T03:11:32;99787.41;;;2.17;71.77
77869;BME280;67231;59.144;37.934;2023-04-02T03:17:26;99777.56;;;2.21;71.78
77869;BME280;67231;59.144;37.934;2023-04-02T03:20:12;99793.06;;;2.24;71.81
77869;BME280;67231;59.144;37.934;2023-04-02T03:22:52;99789.94;;;2.18;71.82
77869;BME280;67231;59.144;37.934;2023-04-02T03:25:24;99787.41;;;2.17;71.64
77869;BME280;67231;59.144;37.934;2023-04-02T03:28:00;99793.56;;;2.16;71.87
77869;BME280;67231;59.144;37.934;2023-04-02T03:33:14;99798.72;;;2.17;71.80
77869;BME280;67231;59.144;37.934;2023-04-02T03:35:46;99805.31;;;2.23;71.60
77869;BME280;67231;59.144;37.934;2023-04-02T03:38:33;99792.66;;;2.30;71.60
77869;BME280;67231;59.144;37.934;2023-04-02T03:41:28;99807.19;;;2.34;71.33
77869;BME280;67231;59.144;37.934;2023-04-02T03:43:59;99801.66;;;2.39;71.46
77869;BME280;67231;59.144;37.934;2023-04-02T03:46:45;99804.88;;;2.42;71.56
77869;BME280;67231;59.144;37.934;2023-04-02T03:49:47;99798.81;;;2.42;71.25
77869;BME280;67231;59.144;37.934;2023-04-02T03:52:28;99805.75;;;2.43;71.70
77869;BME280;67231;59.144;37.934;2023-04-02T03:54:59;99801.34;;;2.43;71.40
77869;BME280;67231;59.144;37.934;2023-04-02T04:02:48;99811.19;;;2.52;71.10
77869;BME280;67231;59.144;37.934;2023-04-02T04:05:42;99808.13;;;2.59;70.86
77869;BME280;67231;59.144;37.934;2023-04-02T04:08:17;99811.38;;;2.62;71.05
77869;BME280;67231;59.144;37.934;2023-04-02T04:10:48;99805.81;;;2.67;70.83
77869;BME280;67231;59.144;37.934;2023-04-02T04:13:19;99819.22;;;2.75;70.79
77869;BME280;67231;59.144;37.934;2023-04-02T04:15:53;99819.53;;;2.83;70.74
77869;BME280;67231;59.144;37.934;2023-04-02T04:18:48;99815.22;;;2.82;70.47
77869;BME280;67231;59.144;37.934;2023-04-02T04:21:21;99824.88;;;2.82;70.15
77869;BME280;67231;59.144;37.934;2023-04-02T04:24:01;99830.94;;;2.82;70.24
77869;BME280;67231;59.144;37.934;2023-04-02T04:26:41;99823.25;;;2.92;70.35
77869;BME280;67231;59.144;37.934;2023-04-02T04:31:47;99819.59;;;2.95;70.36
77869;BME280;67231;59.144;37.934;2023-04-02T04:34:25;99816.38;;;2.91;70.44
77869;BME280;67231;59.144;37.934;2023-04-02T04:37:02;99820.53;;;2.94;70.18
77869;BME280;67231;59.144;37.934;2023-04-02T04:39:44;99819.59;;;2.95;70.14
77869;BME280;67231;59.144;37.934;2023-04-02T04:42:21;99824.84;;;2.95;70.68
77869;BME280;67231;59.144;37.934;2023-04-02T04:44:56;99830.81;;;2.97;70.18
77869;BME280;67231;59.144;37.934;2023-04-02T04:47:34;99819.38;;;2.98;69.86
77869;BME280;67231;59.144;37.934;2023-04-02T04:52:39;99822.41;;;3.04;69.77
77869;BME280;67231;59.144;37.934;2023-04-02T04:55:32;99837.09;;;3.07;70.23
77869;BME280;67231;59.144;37.934;2023-04-02T04:58:32;99831.75;;;3.08;70.14
77869;BME280;67231;59.144;37.934;2023-04-02T05:04:05;99833.56;;;3.19;70.27
77869;BME280;67231;59.144;37.934;2023-04-02T05:07:08;99836.31;;;3.18;70.06
77869;BME280;67231;59.144;37.934;2023-04-02T05:09:37;99839.47;;;3.23;70.32
77869;BME280;67231;59.144;37.934;2023-04-02T05:17:50;99846.09;;;3.40;70.10
77869;BME280;67231;59.144;37.934;2023-04-02T05:20:24;99836.97;;;3.45;69.79
77869;BME280;67231;59.144;37.934;2023-04-02T05:23:02;99838.28;;;3.51;69.67
77869;BME280;67231;59.144;37.934;2023-04-02T05:25:31;99843.44;;;3.53;69.53
77869;BME280;67231;59.144;37.934;2023-04-02T05:31:13;99842.50;;;3.54;69.94
77869;BME280;67231;59.144;37.934;2023-04-02T05:33:46;99837.84;;;3.57;70.20
77869;BME280;67231;59.144;37.934;2023-04-02T05:36:20;99844.78;;;3.58;69.91
77869;BME280;67231;59.144;37.934;2023-04-02T05:38:52;99841.41;;;3.56;69.89
77869;BME280;67231;59.144;37.934;2023-04-02T05:41:33;99851.06;;;3.56;69.54
77869;BME280;67231;59.144;37.934;2023-04-02T05:46:49;99851.94;;;3.43;70.22
77869;BME280;67231;59.144;37.934;2023-04-02T05:52:49;99860.19;;;3.39;70.56
77869;BME280;67231;59.144;37.934;2023-04-02T05:57:51;99861.84;;;3.40;70.82
77869;BME280;67231;59.144;37.934;2023-04-02T06:00:42;99865.81;;;3.45;71.19
77869;BME280;67231;59.144;37.934;2023-04-02T06:03:30;99869.34;;;3.57;70.90
77869;BME280;67231;59.144;37.934;2023-04-02T06:06:04;99868.78;;;3.65;70.86
77869;BME280;67231;59.144;37.934;2023-04-02T06:08:38;99864.63;;;3.74;70.96
77869;BME280;67231;59.144;37.934;2023-04-02T06:11:10;99869.44;;;3.80;70.67
77869;BME280;67231;59.144;37.934;2023-04-02T06:13:39;99871.13;;;3.81;70.08
77869;BME280;67231;59.144;37.934;2023-04-02T06:16:12;99860.41;;;3.84;70.75
77869;BME280;67231;59.144;37.934;2023-04-02T06:18:40;99872.09;;;3.91;70.60
77869;BME280;67231;59.144;37.934;2023-04-02T06:21:08;99875.47;;;3.93;70.50
77869;BME280;67231;59.144;37.934;2023-04-02T06:26:32;99864.88;;;3.95;70.48
77869;BME280;67231;59.144;37.934;2023-04-02T06:31:55;99872.66;;;4.08;70.62
77869;BME280;67231;59.144;37.934;2023-04-02T06:34:24;99872.41;;;4.11;70.40
77869;BME280;67231;59.144;37.934;2023-04-02T06:37:03;99866.94;;;4.14;70.64
77869;BME280;67231;59.144;37.934;2023-04-02T06:39:35;99872.41;;;4.11;70.27
77869;BME280;67231;59.144;37.934;2023-04-02T06:42:15;99871.59;;;4.10;70.73
77869;BME280;67231;59.144;37.934;2023-04-02T06:45:04;99873.63;;;4.07;71.07
77869;BME280;67231;59.144;37.934;2023-04-02T06:47:49;99873.88;;;4.15;70.52
77869;BME280;67231;59.144;37.934;2023-04-02T06:50:30;99875.56;;;4.16;71.07
77869;BME280;67231;59.144;37.934;2023-04-02T06:53:03;99875.69;;;4.14;71.29
77869;BME280;67231;59.144;37.934;2023-04-02T06:55:46;99874.13;;;4.23;70.88
77869;BME280;67231;59.144;37.934;2023-04-02T06:58:19;99865.34;;;4.35;70.72
77869;BME280;67231;59.144;37.934;2023-04-02T07:00:47;99877.03;;;4.43;70.61
77869;BME280;67231;59.144;37.934;2023-04-02T07:03:26;99865.84;;;4.52;70.61
77869;BME280;67231;59.144;37.934;2023-04-02T07:05:55;99862.97;;;4.55;70.00
77869;BME280;67231;59.144;37.934;2023-04-02T07:08:23;99869.19;;;4.54;70.49
77869;BME280;67231;59.144;37.934;2023-04-02T07:10:49;99876.72;;;4.59;70.37
77869;BME280;67231;59.144;37.934;2023-04-02T07:13:18;99874.91;;;4.48;70.65
77869;BME280;67231;59.144;37.934;2023-04-02T07:15:48;99878.72;;;4.44;70.65
77869;BME280;67231;59.144;37.934;2023-04-02T07:18:25;99875.97;;;4.34;71.18
77869;BME280;67231;59.144;37.934;2023-04-02T07:20:53;99875.47;;;4.29;71.34
77869;BME280;67231;59.144;37.934;2023-04-02T07:23:20;99877.13;;;4.30;71.19
77869;BME280;67231;59.144;37.934;2023-04-02T07:25:51;99878.34;;;4.37;71.70
77869;BME280;67231;59.144;37.934;2023-04-02T07:28:18;99879.91;;;4.40;71.25
77869;BME280;67231;59.144;37.934;2023-04-02T07:30:45;99873.69;;;4.41;71.22
77869;BME280;67231;59.144;37.934;2023-04-02T07:33:13;99877.03;;;4.43;71.29
77869;BME280;67231;59.144;37.934;2023-04-02T07:35:40;99876.81;;;4.46;71.80
77869;BME280;67231;59.144;37.934;2023-04-02T07:38:07;99869.78;;;4.46;71.33
77869;BME280;67231;59.144;37.934;2023-04-02T07:40:34;99875.63;;;4.38;71.81
77869;BME280;67231;59.144;37.934;2023-04-02T07:43:00;99875.00;;;4.35;71.69
77869;BME280;67231;59.144;37.934;2023-04-02T07:45:27;99866.50;;;4.31;71.76
77869;BME280;67231;59.144;37.934;2023-04-02T07:47:53;99877.75;;;4.33;71.70
77869;BME280;67231;59.144;37.934;2023-04-02T07:50:19;99869.25;;;4.30;71.93
77869;BME280;67231;59.144;37.934;2023-04-02T07:52:46;99875.06;;;4.22;72.26
77869;BME280;67231;59.144;37.934;2023-04-02T07:55:14;99869.22;;;4.18;72.29
77869;BME280;67231;59.144;37.934;2023-04-02T07:57:48;99876.03;;;4.21;72.30
77869;BME280;67231;59.144;37.934;2023-04-02T08:00:14;99867.94;;;4.24;72.46
77869;BME280;67231;59.144;37.934;2023-04-02T08:02:41;99872.22;;;4.25;72.17
77869;BME280;67231;59.144;37.934;2023-04-02T08:05:07;99856.47;;;4.25;72.82
77869;BME280;67231;59.144;37.934;2023-04-02T08:07:34;99856.75;;;4.33;72.16
77869;BME280;67231;59.144;37.934;2023-04-02T08:10:00;99860.56;;;4.41;72.25
77869;BME280;67231;59.144;37.934;2023-04-02T08:12:27;99863.22;;;4.52;71.76
77869;BME280;67231;59.144;37.934;2023-04-02T08:14:53;99864.44;;;4.59;71.58
77869;BME280;67231;59.144;37.934;2023-04-02T08:17:19;99863.69;;;4.57;71.82
77869;BME280;67231;59.144;37.934;2023-04-02T08:19:46;99868.94;;;4.57;71.85
77869;BME280;67231;59.144;37.934;2023-04-02T08:22:12;99866.31;;;4.57;71.63
77869;BME280;67231;59.144;37.934;2023-04-02T08:24:39;99867.28;;;4.56;71.31
77869;BME280;67231;59.144;37.934;2023-04-02T08:27:05;99867.28;;;4.56;71.56
77869;BME280;67231;59.144;37.934;2023-04-02T08:29:32;99868.22;;;4.55;71.56
77869;BME280;67231;59.144;37.934;2023-04-02T08:31:58;99865.25;;;4.60;71.64
77869;BME280;67231;59.144;37.934;2023-04-02T08:34:25;99862.41;;;4.63;71.42
77869;BME280;67231;59.144;37.934;2023-04-02T08:36:54;99867.53;;;4.64;71.97
77869;BME280;67231;59.144;37.934;2023-04-02T08:39:21;99867.06;;;4.59;71.98
77869;BME280;67231;59.144;37.934;2023-04-02T08:47:03;99860.13;;;4.69;72.08
77869;BME280;67231;59.144;37.934;2023-04-02T08:49:38;99872.56;;;4.67;72.20
77869;BME280;67231;59.144;37.934;2023-04-02T08:52:25;99870.66;;;4.69;71.95
77869;BME280;67231;59.144;37.934;2023-04-02T08:54:52;99865.03;;;4.74;72.05
77869;BME280;67231;59.144;37.934;2023-04-02T09:00:00;99866.56;;;4.65;72.35
77869;BME280;67231;59.144;37.934;2023-04-02T09:02:40;99866.19;;;4.59;71.89
77869;BME280;67231;59.144;37.934;2023-04-02T09:05:16;99865.00;;;4.51;72.42
77869;BME280;67231;59.144;37.934;2023-04-02T09:07:44;99865.81;;;4.41;72.05
77869;BME280;67231;59.144;37.934;2023-04-02T09:10:16;99871.28;;;4.26;72.71
77869;BME280;67231;59.144;37.934;2023-04-02T09:12:45;99874.13;;;4.23;73.04
77869;BME280;67231;59.144;37.934;2023-04-02T09:17:39;99879.63;;;4.20;73.23
77869;BME280;67231;59.144;37.934;2023-04-02T09:22:46;99877.66;;;4.11;73.27
77869;BME280;67231;59.144;37.934;2023-04-02T09:25:20;99885.91;;;4.06;73.05
77869;BME280;67231;59.144;37.934;2023-04-02T09:27:49;99879.69;;;4.07;73.46
77869;BME280;67231;59.144;37.934;2023-04-02T09:33:02;99889.44;;;3.94;73.91
77869;BME280;67231;59.144;37.934;2023-04-02T09:35:35;99894.78;;;3.92;74.32
77869;BME280;67231;59.144;37.934;2023-04-02T09:38:21;99890.25;;;3.94;74.01
77869;BME280;67231;59.144;37.934;2023-04-02T09:43:23;99896.88;;;4.00;73.85
77869;BME280;67231;59.144;37.934;2023-04-02T09:45:58;99906.06;;;4.06;73.98
77869;BME280;67231;59.144;37.934;2023-04-02T09:48:32;99906.44;;;4.12;73.53
77869;BME280;67231;59.144;37.934;2023-04-02T09:51:14;99913.81;;;4.07;73.35
77869;BME280;67231;59.144;37.934;2023-04-02T09:53:42;99915.06;;;4.14;73.86
77869;BME280;67231;59.144;37.934;2023-04-02T09:56:15;99923.53;;;4.18;73.67
77869;BME280;67231;59.144;37.934;2023-04-02T09:58:43;99919.53;;;4.01;73.85
77869;BME280;67231;59.144;37.934;2023-04-02T10:01:30;99935.06;;;4.04;74.01
77869;BME280;67231;59.144;37.934;2023-04-02T10:03:59;99932.31;;;4.06;74.39
77869;BME280;67231;59.144;37.934;2023-04-02T10:06:28;99932.44;;;4.04;73.78
77869;BME280;67231;59.144;37.934;2023-04-02T10:08:55;99934.88;;;3.94;74.10
77869;BME280;67231;59.144;37.934;2023-04-02T10:11:31;99938.47;;;3.93;74.30
77869;BME280;67231;59.144;37.934;2023-04-02T10:14:33;99930.81;;;3.90;74.13
77869;BME280;67231;59.144;37.934;2023-04-02T10:16:55;99925.06;;;3.85;74.71
77869;BME280;67231;59.144;37.934;2023-04-02T10:19:37;99926.84;;;3.85;74.45
77869;BME280;67231;59.144;37.934;2023-04-02T10:22:14;99934.72;;;3.85;74.89
77869;BME280;67231;59.144;37.934;2023-04-02T10:24:41;99928.09;;;3.92;74.31
77869;BME280;67231;59.144;37.934;2023-04-02T10:27:16;99927.97;;;3.93;74.39
77869;BME280;67231;59.144;37.934;2023-04-02T10:33:39;99936.63;;;3.82;74.51
77869;BME280;67231;59.144;37.934;2023-04-02T10:35:55;99945.09;;;3.86;74.84
77869;BME280;67231;59.144;37.934;2023-04-02T10:38:46;99952.97;;;3.86;74.65
77869;BME280;67231;59.144;37.934;2023-04-02T10:54:02;99964.56;;;3.71;74.47
77869;BME280;67231;59.144;37.934;2023-04-02T10:56:21;99964.56;;;3.71;74.93
77869;BME280;67231;59.144;37.934;2023-04-02T10:58:59;99975.81;;;3.73;75.10
77869;BME280;67231;59.144;37.934;2023-04-02T11:01:29;99980.56;;;3.68;75.33
77869;BME280;67231;59.144;37.934;2023-04-02T11:03:59;99978.16;;;3.64;75.10
77869;BME280;67231;59.144;37.934;2023-04-02T11:06:42;99971.94;;;3.65;75.34
77869;BME280;67231;59.144;37.934;2023-04-02T11:09:16;99973.72;;;3.65;75.34
77869;BME280;67231;59.144;37.934;2023-04-02T11:11:45;99973.84;;;3.63;75.25
77869;BME280;67231;59.144;37.934;2023-04-02T11:14:21;99972.16;;;3.62;75.31
77869;BME280;67231;59.144;37.934;2023-04-02T11:16:49;99966.06;;;3.62;75.30
77869;BME280;67231;59.144;37.934;2023-04-02T11:27:15;99963.66;;;3.59;75.50
77869;BME280;67231;59.144;37.934;2023-04-02T11:29:44;99959.25;;;3.59;75.46
77869;BME280;67231;59.144;37.934;2023-04-02T11:37:36;99956.53;;;3.61;75.38
77869;BME280;67231;59.144;37.934;2023-04-02T11:42:49;99953.72;;;3.51;75.25
77869;BME280;67231;59.144;37.934;2023-04-02T11:50:38;99941.91;;;3.33;75.87
77869;BME280;67231;59.144;37.934;2023-04-02T11:55:41;99940.53;;;3.40;75.83
77869;BME280;67231;59.144;37.934;2023-04-02T12:09:20;99946.41;;;3.18;75.89
77869;BME280;67231;59.144;37.934;2023-04-02T12:11:53;99950.94;;;3.16;76.20
77869;BME280;67231;59.144;37.934;2023-04-02T12:17:03;99944.44;;;3.21;76.16
77869;BME280;67231;59.144;37.934;2023-04-02T12:19:30;99959.75;;;3.27;75.84
77869;BME280;67231;59.144;37.934;2023-04-02T12:21:57;99949.38;;;3.26;75.82
77869;BME280;67231;59.144;37.934;2023-04-02T12:24:25;99951.13;;;3.25;75.81
77869;BME280;67231;59.144;37.934;2023-04-02T12:27:34;99953.97;;;3.22;75.65
77869;BME280;67231;59.144;37.934;2023-04-02T12:30:21;99951.25;;;3.24;75.41
77869;BME280;67231;59.144;37.934;2023-04-02T12:32:48;99957.78;;;3.18;75.46
77869;BME280;67231;59.144;37.934;2023-04-02T12:35:30;99954.28;;;3.18;75.45
77869;BME280;67231;59.144;37.934;2023-04-02T12:37:57;99949.16;;;3.16;75.61
77869;BME280;67231;59.144;37.934;2023-04-02T12:40:25;99948.84;;;3.21;75.65
77869;BME280;67231;59.144;37.934;2023-04-02T12:42:51;99951.56;;;3.19;75.65
77869;BME280;67231;59.144;37.934;2023-04-02T12:45:35;99956.91;;;3.18;75.53
77869;BME280;67231;59.144;37.934;2023-04-02T12:48:03;99958.19;;;3.12;75.89
77869;BME280;67231;59.144;37.934;2023-04-02T12:50:31;99958.41;;;3.09;75.45
77869;BME280;67231;59.144;37.934;2023-04-02T12:52:58;99951.47;;;3.08;75.49
77869;BME280;67231;59.144;37.934;2023-04-02T12:55:26;99957.88;;;3.04;75.70
77869;BME280;67231;59.144;37.934;2023-04-02T12:57:57;99962.50;;;3.00;75.87
77869;BME280;67231;59.144;37.934;2023-04-02T13:02:58;99953.06;;;2.98;76.00
77869;BME280;67231;59.144;37.934;2023-04-02T13:05:49;99951.38;;;2.97;76.12
77869;BME280;67231;59.144;37.934;2023-04-02T13:08:28;99948.03;;;2.95;75.88
77869;BME280;67231;59.144;37.934;2023-04-02T13:10:58;99952.63;;;2.91;75.97
77869;BME280;67231;59.144;37.934;2023-04-02T13:13:31;99956.50;;;2.85;76.02
77869;BME280;67231;59.144;37.934;2023-04-02T13:18:47;99953.78;;;2.74;76.14
77869;BME280;67231;59.144;37.934;2023-04-02T13:23:46;99956.06;;;2.66;76.05
77869;BME280;67231;59.144;37.934;2023-04-02T13:26:27;99958.16;;;2.61;76.28
77869;BME280;67231;59.144;37.934;2023-04-02T13:29:02;99964.75;;;2.53;76.16
77869;BME280;67231;59.144;37.934;2023-04-02T13:31:30;99969.25;;;2.51;76.38
77869;BME280;67231;59.144;37.934;2023-04-02T13:33:57;99960.66;;;2.49;76.51
77869;BME280;67231;59.144;37.934;2023-04-02T13:36:25;99947.69;;;2.48;76.75
77869;BME280;67231;59.144;37.934;2023-04-02T13:38:54;99948.31;;;2.51;76.69
77869;BME280;67231;59.144;37.934;2023-04-02T13:41:24;99952.59;;;2.52;76.66
77869;BME280;67231;59.144;37.934;2023-04-02T13:43:52;99955.44;;;2.49;76.65
77869;BME280;67231;59.144;37.934;2023-04-02T13:46:22;99954.59;;;2.49;76.85
77869;BME280;67231;59.144;37.934;2023-04-02T13:48:49;99954.69;;;2.47;76.92
77869;BME280;67231;59.144;37.934;2023-04-02T13:51:17;99957.63;;;2.43;77.21
77869;BME280;67231;59.144;37.934;2023-04-02T13:53:46;99961.06;;;2.43;77.01
77869;BME280;67231;59.144;37.934;2023-04-02T13:56:15;99962.00;;;2.42;77.01
77869;BME280;67231;59.144;37.934;2023-04-02T13:58:41;99961.47;;;2.37;77.17
77869;BME280;67231;59.144;37.934;2023-04-02T14:01:08;99962.53;;;2.34;77.58
77869;BME280;67231;59.144;37.934;2023-04-02T14:03:34;99958.94;;;2.35;77.37
77869;BME280;67231;59.144;37.934;2023-04-02T14:06:17;99960.75;;;2.35;77.53
77869;BME280;67231;59.144;37.934;2023-04-02T14:32:11;99976.59;;;2.19;78.42
77869;BME280;67231;59.144;37.934;2023-04-02T14:35:27;99966.97;;;2.19;78.77
77869;BME280;67231;59.144;37.934;2023-04-02T14:38:05;99967.94;;;2.18;78.75
77869;BME280;67231;59.144;37.934;2023-04-02T14:40:58;99974.19;;;2.16;78.88
77869;BME280;67231;59.144;37.934;2023-04-02T14:43:49;99975.78;;;2.18;78.74
77869;BME280;67231;59.144;37.934;2023-04-02T14:46:16;99973.16;;;2.18;78.81
77869;BME280;67231;59.144;37.934;2023-04-02T14:48:50;99978.59;;;2.15;78.83
77869;BME280;67231;59.144;37.934;2023-04-02T14:51:36;99978.69;;;2.14;79.10
77869;BME280;67231;59.144;37.934;2023-04-02T14:56:57;99989.25;;;2.12;79.35
77869;BME280;67231;59.144;37.934;2023-04-02T14:59:38;99982.25;;;2.13;79.25
77869;BME280;67231;59.144;37.934;2023-04-02T15:05:16;99994.69;;;2.09;78.97
77869;BME280;67231;59.144;37.934;2023-04-02T15:07:55;99990.38;;;2.08;79.56
77869;BME280;67231;59.144;37.934;2023-04-02T15:13:53;99989.66;;;2.06;79.61
77869;BME280;67231;59.144;37.934;2023-04-02T15:16:23;99987.97;;;2.05;79.26
77869;BME280;67231;59.144;37.934;2023-04-02T15:18:58;99986.31;;;2.04;79.17
77869;BME280;67231;59.144;37.934;2023-04-02T15:32:37;100001.66;;;1.96;79.52
77869;BME280;67231;59.144;37.934;2023-04-02T15:45:56;100001.66;;;1.96;79.86
77869;BME280;67231;59.144;37.934;2023-04-02T15:54:03;99998.56;;;1.89;79.75
77869;BME280;67231;59.144;37.934;2023-04-02T16:10:58;100024.47;;;1.79;79.98
77869;BME280;67231;59.144;37.934;2023-04-02T16:13:32;100020.00;;;1.81;79.89
77869;BME280;67231;59.144;37.934;2023-04-02T16:16:06;100024.09;;;1.86;80.09
77869;BME280;67231;59.144;37.934;2023-04-02T16:21:44;100026.16;;;1.80;80.23
77869;BME280;67231;59.144;37.934;2023-04-02T16:24:12;100028.78;;;1.80;80.10
77869;BME280;67231;59.144;37.934;2023-04-02T16:40:39;100038.50;;;1.78;80.42
77869;BME280;67231;59.144;37.934;2023-04-02T16:43:29;100042.03;;;1.77;80.59
77869;BME280;67231;59.144;37.934;2023-04-02T17:08:01;100035.13;;;1.76;80.72
77869;BME280;67231;59.144;37.934;2023-04-02T17:15:42;100041.31;;;1.75;80.58
77869;BME280;67231;59.144;37.934;2023-04-02T17:18:19;100033.56;;;1.74;80.59
77869;BME280;67231;59.144;37.934;2023-04-02T17:20:49;100048.19;;;1.76;80.56
77869;BME280;67231;59.144;37.934;2023-04-02T17:23:17;100040.34;;;1.76;80.51
77869;BME280;67231;59.144;37.934;2023-04-02T17:25:55;100041.22;;;1.77;80.46
77869;BME280;67231;59.144;37.934;2023-04-02T17:28:27;100042.22;;;1.74;80.62
77869;BME280;67231;59.144;37.934;2023-04-02T17:31:20;100045.78;;;1.73;81.17
77869;BME280;67231;59.144;37.934;2023-04-02T17:33:47;100047.66;;;1.71;80.86
77869;BME280;67231;59.144;37.934;2023-04-02T17:41:51;100053.53;;;1.75;81.16
77869;BME280;67231;59.144;37.934;2023-04-02T17:47:22;100037.19;;;1.71;80.85
77869;BME280;67231;59.144;37.934;2023-04-02T17:50:23;100054.56;;;1.72;80.69
77869;BME280;67231;59.144;37.934;2023-04-02T17:53:07;100054.56;;;1.72;81.01
77869;BME280;67231;59.144;37.934;2023-04-02T18:01:29;100053.53;;;1.75;81.08
77869;BME280;67231;59.144;37.934;2023-04-02T18:06:38;100068.38;;;1.74;80.63
77869;BME280;67231;59.144;37.934;2023-04-02T18:15:01;100071.00;;;1.74;81.01
77869;BME280;67231;59.144;37.934;2023-04-02T18:20:34;100071.94;;;1.73;80.75
77869;BME280;67231;59.144;37.934;2023-04-02T18:23:18;100068.47;;;1.73;80.91
77869;BME280;67231;59.144;37.934;2023-04-02T18:29:18;100079.69;;;1.75;80.72